Colfax, Washington
Current Conditions -  °F | °C
As of 6:53 AM on Thursday 18 Dec 2014 (Local Time) from KPUW Reporting Station
Overcast Overcast  
Wind Chill: -1°   Ceiling: 10000
Heat Index:   Visibility: 10mi
Dew Point:   Wind: 8mph
Humidity: 93%   Direction: 130°SE
Pressure: 30"   Gusts: NA
Location:  46.88°N, 117.36°W
Report Text: KPUW 181453Z AUTO 13007KT 10SM FEW070 OVC100 03/02 A3000 RMK AO2 SLP174 60000 T00280017 53002
Loading
Personal Weather Stations






























Interactive Weather Map New forecast layout! Learn more

10-Day Weather Forecast

Advertisements
Track Severe Weather on mobile